Pagrindinis puslapis
METAR-TAF:

METAR-TAF

Oro uostai :

Bangis, Centrinės Afrikos Respublika

platuma: 04-24N, ilguma: 018-31E, Aukštis: 365 m

Dabartinis oras

Ataskaita buvo paskelbta 1 valandą ir 24 minutes, ne 02:00 UTC
Ramus vėjas
Temperatūra 22°C
Drėgmė 78%
Slėgis 1011 hPa
Matomumas 10 km arba daugiau
nėra debesų žemiau 1500 m ir nėra kamuolinių lietaus debesų

METAR: FEFF 280200Z 00000KT CAVOK 22/18 Q1011 NOSIG

Laikas: 04:24 (03:24 UTC)

Prognozė

Ataskaita buvo paskelbta 4 valandos ir 24 minutes, ne 23:00 UTC
Prognozė galioja nuo 28 metu 00 UTC su 29 metu 06 UTC
Vėjas kt iš Šiaurės
Matomumas: 6000 m
dūmai
Tapsmas
nuo 28 metu 03 UTC su 28 metu 05 UTC
Matomumas: 3000 m
rūkana
Tapsmas
nuo 28 metu 06 UTC su 28 metu 08 UTC
Vėjas 10 kt iš Šiaurės Rytų
Matomumas: 8000 m
Nuo 28 metu 1630 UTC
Vėjas 2 kt nuo kintamojo kryptimis
Matomumas: 2500 m
migla
Tapsmas
nuo 28 metu 19 UTC su 28 metu 21 UTC
Matomumas: 7000 m

TAF: FEFF 272300Z 2800/2906 00000KT 6000 FU NSC BECMG 2803/2805 3000 BR BECMG 2806/2808 04010KT 8000 FM281630 VRB02KT 2500 HZ NSC BECMG 2819/2821 7000

Orai ataskaitas ir orų prognozės (METAR, TAF).

turimą stotys yra geltonos ir raudonos taškus žemėlapyje.

Perkelti pele per norėdami pamatyti stoties vardą.

Tada spustelėkite, norėdami matyti oro stebėjimo ir prognozės.

Norėdami pakeisti žemėlapį: spustelėkite ant žalios mygtukų su juodo kryžiaus žemyn,; žalią mygtuką su brūkšneliu, jei norite nutolinti; arba žalių rodyklių gretimoms žemėlapius.


METAR-TAF: